The World — C6RW4 — position and weather

sailwx.info

Track history (hours):
 
Tides and Currents Weather Stations Pressure Air Temp Water Temp Dewpoint Dewpoint Depression Visibility Wind Speed Wind Dir Waves Ship Positions

The World

Operator: Bergshav-Norway

Last reported at 2018-Nov-11 02:30 UTC. Time now 2018-Nov-18 16:36 UTC.
Position N 39°33' E 002°38'.

Length 196 m; draft 7.1 m.

Type: Ship. MMSI: 311213000.

Date/timePositionNaut miles runAvg speedWind from/ knotsBaromVisibWave heightAir tempDewpointWater temp
2018-Nov-11 02:30N 39°33' E 002°38'0 0.0
2018-Nov-11 02:00N 39°33' E 002°38'0 0.0
2018-Nov-11 01:30N 39°33' E 002°38'0 0.0
2018-Nov-11 01:00N 39°33' E 002°38'0 0.0
2018-Nov-11 00:30N 39°33' E 002°38'0 0.0
2018-Nov-11 00:00N 39°33' E 002°38'0 0.0
2018-Nov-10 23:27N 39°33' E 002°38'0 0.0
2018-Nov-10 23:00N 39°33' E 002°38'0 0.0
2018-Nov-10 22:30N 39°33' E 002°38'0 0.0
2018-Nov-10 22:00N 39°33' E 002°38'0 0.0
2018-Nov-10 21:30N 39°33' E 002°38'0 0.0
2018-Nov-10 21:00N 39°33' E 002°38'0 0.0
2018-Nov-10 20:30N 39°33' E 002°38'0 0.0
2018-Nov-10 20:00N 39°33' E 002°38'0 0.0
2018-Nov-10 19:27N 39°33' E 002°38'0 0.0
2018-Nov-10 19:00N 39°33' E 002°38'0 0.0
2018-Nov-10 18:30N 39°33' E 002°38'0 0.0
2018-Nov-10 17:51N 39°33' E 002°38'0 0.0
2018-Nov-10 17:30N 39°33' E 002°38'0 0.0
2018-Nov-10 17:00N 39°33' E 002°38'0 0.0
2018-Nov-10 16:30N 39°33' E 002°38'0 0.0
2018-Nov-10 16:00N 39°33' E 002°38'0 0.0
2018-Nov-10 15:30N 39°33' E 002°38'0 0.0
2018-Nov-10 15:01N 39°33' E 002°38'1 1.8
2018-Nov-10 14:32N 39°33' E 002°38'4 7.9
2018-Nov-10 14:02N 39°29' E 002°39'611.7
2018-Nov-10 13:32N 39°24' E 002°40'611.4
2018-Nov-10 13:02N 39°18' E 002°42'611.4
2018-Nov-10 12:32N 39°13' E 002°44'611.7
2018-Nov-10 12:02N 39°07' E 002°46'511.0
2018-Nov-10 11:32N 39°02' E 002°50'611.6
2018-Nov-10 11:01N 39°02' E 002°58'611.8
2018-Nov-10 10:32N 39°02' E 003°05'711.7
2018-Nov-10 09:55N 39°02' E 003°15'411.7
2018-Nov-10 09:32N 39°04' E 003°20'611.7
2018-Nov-10 09:02N 39°07' E 003°26'33512.1
2018-Nov-09 05:15N 41°34' E 010°01'313.3
2018-Nov-09 05:02N 41°35' E 010°05'613.1
2018-Nov-09 04:33N 41°38' E 010°13'  
2018-Nov-05 14:14N 40°20' E 013°19'4 8.8
2018-Nov-05 13:47N 40°17' E 013°23'3 8.8
2018-Nov-05 13:27N 40°15' E 013°25'17 8.8
2018-Nov-05 11:35N 40°03' E 013°39'14 8.7
2018-Nov-05 09:55N 39°52' E 013°52'3 8.4
2018-Nov-05 09:30N 39°49' E 013°55'5 8.5
2018-Nov-05 08:58N 39°46' E 013°59'67 8.6
2018-Nov-05 01:07N 38°56' E 014°56'6 8.3
2018-Nov-05 00:27N 38°51' E 015°01'3 8.1
2018-Nov-05 00:03N 38°49' E 015°04'2 8.2
2018-Nov-04 23:51N 38°48' E 015°05'3 8.8
2018-Nov-04 23:30N 38°46' E 015°08'4 8.6
2018-Nov-04 23:03N 38°43' E 015°11'1 8.3
2018-Nov-04 23:00N 38°42' E 015°12'5 8.5
2018-Nov-04 22:27N 38°40' E 015°16'3 8.4
2018-Nov-04 22:03N 38°38' E 015°20'0 8.4
2018-Nov-04 22:00N 38°37' E 015°20'4 8.6
2018-Nov-04 21:29N 38°34' E 015°24'4 8.9
2018-Nov-04 21:03N 38°32' E 015°28'1 8.9
2018-Nov-04 20:59N 38°31' E 015°28'5 8.8
2018-Nov-04 20:23N 38°27' E 015°33'3 9.8
2018-Nov-04 20:04N 38°25' E 015°35'112.7
2018-Nov-04 20:01N 38°24' E 015°36'814.2
2018-Nov-04 19:26N 38°17' E 015°42'411.6
2018-Nov-04 19:03N 38°14' E 015°38'0 9.6
2018-Nov-04 19:00N 38°14' E 015°37'4 0.1
2018-Nov-03 06:45N 38°12' E 015°33'0 0.6
2018-Nov-03 06:28N 38°12' E 015°34'2 5.2
2018-Nov-03 06:03N 38°13' E 015°35'1 9.7
2018-Nov-03 06:00N 38°14' E 015°36'611.7
2018-Nov-03 05:30N 38°19' E 015°40'510.3
2018-Nov-03 05:03N 38°21' E 015°35'110.7
2018-Nov-03 05:00N 38°21' E 015°34'510.4
2018-Nov-03 04:30N 38°21' E 015°28'510.6
2018-Nov-03 04:03N 38°21' E 015°22'111.5
2018-Nov-03 04:00N 38°21' E 015°21'611.2
2018-Nov-03 03:30N 38°20' E 015°14'511.0
2018-Nov-03 03:03N 38°19' E 015°08'111.0
2018-Nov-03 03:00N 38°19' E 015°07'611.0
2018-Nov-03 02:30N 38°19' E 014°60'511.1
2018-Nov-03 02:03N 38°18' E 014°54'111.1
2018-Nov-03 02:00N 38°18' E 014°53'611.3
2018-Nov-03 01:29N 38°17' E 014°45'511.5
2018-Nov-03 01:01N 38°17' E 014°39'012.2
2018-Nov-03 01:00N 38°17' E 014°39'1215.5
2018-Nov-03 00:13N 38°15' E 014°23'315.8
2018-Nov-03 00:03N 38°15' E 014°20'1615.7
2018-Nov-02 23:00N 38°13' E 013°59'815.3
2018-Nov-02 22:30N 38°12' E 013°49'715.5
2018-Nov-02 22:03N 38°11' E 013°41'115.5
2018-Nov-02 22:01N 38°11' E 013°40'815.4
2018-Nov-02 21:31N 38°10' E 013°30'613.7
2018-Nov-02 21:03N 38°07' E 013°23'0 7.5
2018-Nov-02 21:00N 38°07' E 013°23'1 1.7
2018-Nov-02 20:29N 38°08' E 013°22'0 0.0
2018-Nov-02 20:02N 38°08' E 013°22'0 0.0
2018-Nov-02 19:59N 38°08' E 013°22'0 0.0
2018-Nov-02 19:29N 38°08' E 013°22'0 0.0
2018-Nov-02 19:02N 38°08' E 013°22'0 0.0
2018-Nov-02 18:59N 38°08' E 013°22'0 0.0
2018-Nov-02 18:29N 38°08' E 013°22'0 0.0
2018-Nov-02 18:02N 38°08' E 013°22'0 0.0
2018-Nov-02 17:59N 38°08' E 013°22'0 0.0
2018-Nov-02 17:29N 38°08' E 013°22'0 0.0
2018-Nov-02 16:59N 38°08' E 013°22'0 0.0
2018-Nov-02 16:29N 38°08' E 013°22'0 0.0
2018-Nov-02 16:02N 38°08' E 013°22'0 0.0
2018-Nov-02 15:59N 38°08' E 013°22'0 0.0
2018-Nov-02 15:29N 38°08' E 013°22'0 0.0
2018-Nov-02 15:02N 38°08' E 013°22'0 0.0
2018-Nov-02 14:59N 38°08' E 013°22'0 0.0
2018-Nov-02 14:02N 38°08' E 013°22'0 0.0
2018-Nov-02 13:59N 38°08' E 013°22'0 0.0
2018-Nov-02 13:29N 38°08' E 013°22'0 0.0
2018-Nov-02 13:02N 38°08' E 013°22'0 0.0
2018-Nov-02 12:59N 38°08' E 013°22'0 0.0
2018-Nov-02 12:29N 38°08' E 013°22'0 0.0
2018-Nov-02 12:02N 38°08' E 013°22'0 0.0
2018-Nov-02 11:59N 38°08' E 013°22'0 0.0
2018-Nov-02 11:29N 38°08' E 013°22'0 0.0
2018-Nov-02 11:02N 38°08' E 013°22'0 0.0
2018-Nov-02 10:59N 38°08' E 013°22'0 0.0
2018-Nov-02 10:29N 38°08' E 013°22'0 0.0
2018-Nov-02 10:02N 38°08' E 013°22'0 0.0
2018-Nov-02 09:59N 38°08' E 013°22'0 0.0
2018-Nov-02 09:29N 38°08' E 013°22'0 0.0
2018-Nov-02 09:02N 38°08' E 013°22'0 0.0
2018-Nov-02 08:59N 38°08' E 013°22'0 0.0
2018-Nov-02 08:29N 38°08' E 013°22'0 0.0
2018-Nov-02 08:02N 38°08' E 013°22'0 0.0
2018-Nov-02 07:59N 38°08' E 013°22'0 0.0
2018-Nov-02 07:29N 38°08' E 013°22'0 0.0
2018-Nov-02 07:02N 38°08' E 013°22'0 0.0
2018-Nov-02 06:38N 38°08' E 013°22'0 0.0
2018-Nov-02 06:29N 38°08' E 013°22'0 0.0
2018-Nov-02 05:59N 38°08' E 013°22'0 0.0
2018-Nov-02 05:29N 38°08' E 013°22'0 0.0
2018-Nov-02 05:02N 38°08' E 013°22'0 0.0
2018-Nov-02 04:59N 38°08' E 013°22'0 0.0
2018-Nov-02 04:29N 38°08' E 013°22'0 0.0
2018-Nov-02 04:02N 38°08' E 013°22'0 0.0
2018-Nov-02 03:59N 38°08' E 013°22'0 0.0
2018-Nov-02 03:29N 38°08' E 013°22'0 0.0
2018-Nov-02 03:02N 38°08' E 013°22'0 0.0
2018-Nov-02 02:59N 38°08' E 013°22'0 0.0
2018-Nov-02 02:29N 38°08' E 013°22'0 0.0
2018-Nov-02 02:02N 38°08' E 013°22'0 0.0
2018-Nov-02 01:59N 38°08' E 013°22'0 0.0
2018-Nov-02 01:29N 38°08' E 013°22'0 0.0
2018-Nov-02 01:02N 38°08' E 013°22'0 0.0
2018-Nov-02 00:59N 38°08' E 013°22'0 0.0
2018-Nov-02 00:50N 38°08' E 013°22'0 0.0
2018-Nov-02 00:35N 38°08' E 013°22'0 0.0
2018-Nov-02 00:29N 38°08' E 013°22'0 0.0
2018-Nov-02 00:02N 38°08' E 013°22'0 0.0
2018-Nov-01 23:59N 38°08' E 013°22'0 0.0
2018-Nov-01 23:29N 38°08' E 013°22'0 0.0
2018-Nov-01 23:02N 38°08' E 013°22'0 0.0
2018-Nov-01 22:59N 38°08' E 013°22'0 0.0
2018-Nov-01 22:29N 38°08' E 013°22'0 0.0
2018-Nov-01 22:02N 38°08' E 013°22'0 0.0
2018-Nov-01 21:59N 38°08' E 013°22'0 0.0
2018-Nov-01 21:29N 38°08' E 013°22'0 0.0
2018-Nov-01 21:02N 38°08' E 013°22'0 0.0
2018-Nov-01 20:59N 38°08' E 013°22'0 0.0
2018-Nov-01 20:29N 38°08' E 013°22'0 0.0
2018-Nov-01 20:02N 38°08' E 013°22'0 0.0
2018-Nov-01 19:59N 38°08' E 013°22'0 0.0
2018-Nov-01 19:29N 38°08' E 013°22'0 0.0
2018-Nov-01 19:02N 38°08' E 013°22'0 0.0
2018-Nov-01 18:59N 38°08' E 013°22'0 0.0
2018-Nov-01 18:29N 38°08' E 013°22'0 0.0
2018-Nov-01 18:02N 38°08' E 013°22'0 0.0
2018-Nov-01 17:59N 38°08' E 013°22'0 0.0
2018-Nov-01 17:29N 38°08' E 013°22'0 0.0
2018-Nov-01 17:02N 38°08' E 013°22'0 0.0
2018-Nov-01 16:59N 38°08' E 013°22'0 0.0
2018-Nov-01 16:29N 38°08' E 013°22'0 0.0
2018-Nov-01 16:02N 38°08' E 013°22'0 0.0
2018-Nov-01 15:59N 38°08' E 013°22'0 0.0
2018-Nov-01 15:29N 38°08' E 013°22'0 0.0
2018-Nov-01 15:02N 38°08' E 013°22'0 0.0
2018-Nov-01 14:59N 38°08' E 013°22'0 0.0
2018-Nov-01 14:29N 38°08' E 013°22'0 0.0
2018-Nov-01 13:59N 38°08' E 013°22'0 0.0
2018-Nov-01 13:29N 38°08' E 013°22'0 0.0
2018-Nov-01 13:02N 38°08' E 013°22'0 0.0
2018-Nov-01 12:59N 38°08' E 013°22'0 0.0
2018-Nov-01 12:29N 38°08' E 013°22'0 0.0
2018-Nov-01 12:02N 38°08' E 013°22'0 0.0
2018-Nov-01 11:59N 38°08' E 013°22'0 0.0
2018-Nov-01 11:29N 38°08' E 013°22'0 0.0
2018-Nov-01 11:02N 38°08' E 013°22'0 0.0
2018-Nov-01 10:59N 38°08' E 013°22'0 0.0
2018-Nov-01 10:29N 38°08' E 013°22'0 0.0
2018-Nov-01 10:02N 38°08' E 013°22'0 0.0
2018-Nov-01 09:59N 38°08' E 013°22'0 0.0
2018-Nov-01 09:29N 38°08' E 013°22'0 0.0
2018-Nov-01 09:02N 38°08' E 013°22'0 0.0
2018-Nov-01 08:59N 38°08' E 013°22'0 0.0
2018-Nov-01 08:29N 38°08' E 013°22'0 0.0
2018-Nov-01 08:02N 38°08' E 013°22'0 0.0
2018-Nov-01 07:59N 38°08' E 013°22'0 0.0
2018-Nov-01 07:29N 38°08' E 013°22'0 0.0
2018-Nov-01 07:02N 38°08' E 013°22'0 0.0
2018-Nov-01 06:59N 38°08' E 013°22'0 0.0
2018-Nov-01 06:29N 38°08' E 013°22'0 0.0
2018-Nov-01 06:02N 38°08' E 013°22'0 0.0
2018-Nov-01 05:59N 38°08' E 013°22'0 0.0
2018-Nov-01 05:29N 38°08' E 013°22'0 0.0
2018-Nov-01 05:02N 38°08' E 013°22'0 0.0
2018-Nov-01 04:59N 38°08' E 013°22'0 0.0
2018-Nov-01 04:29N 38°08' E 013°22'0 0.0
2018-Nov-01 04:02N 38°08' E 013°22'0 0.0
2018-Nov-01 03:59N 38°08' E 013°22'0 0.0
2018-Nov-01 03:29N 38°08' E 013°22'0 0.0
2018-Nov-01 03:02N 38°08' E 013°22'0 0.0
2018-Nov-01 02:59N 38°08' E 013°22'  
Track history (hours):
 
Tides and Currents Weather Stations Pressure Air Temp Water Temp Dewpoint Dewpoint Depression Visibility Wind Speed Wind Dir Waves Ship Positions

The World

Operator: Bergshav-Norway

Last reported at 2018-Nov-11 02:30 UTC. Time now 2018-Nov-18 16:36 UTC.
Position N 39°33' E 002°38'.

Length 196 m; draft 7.1 m.

Type: Ship. MMSI: 311213000.

Date/timePositionNaut miles runAvg speedWind from/ knotsBaromVisibWave heightAir tempDewpointWater temp
2018-Nov-11 02:30N 39°33' E 002°38'0 0.0
2018-Nov-11 02:00N 39°33' E 002°38'0 0.0
2018-Nov-11 01:30N 39°33' E 002°38'0 0.0
2018-Nov-11 01:00N 39°33' E 002°38'0 0.0
2018-Nov-11 00:30N 39°33' E 002°38'0 0.0
2018-Nov-11 00:00N 39°33' E 002°38'0 0.0
2018-Nov-10 23:27N 39°33' E 002°38'0 0.0
2018-Nov-10 23:00N 39°33' E 002°38'0 0.0
2018-Nov-10 22:30N 39°33' E 002°38'0 0.0
2018-Nov-10 22:00N 39°33' E 002°38'0 0.0
2018-Nov-10 21:30N 39°33' E 002°38'0 0.0
2018-Nov-10 21:00N 39°33' E 002°38'0 0.0
2018-Nov-10 20:30N 39°33' E 002°38'0 0.0
2018-Nov-10 20:00N 39°33' E 002°38'0 0.0
2018-Nov-10 19:27N 39°33' E 002°38'0 0.0
2018-Nov-10 19:00N 39°33' E 002°38'0 0.0
2018-Nov-10 18:30N 39°33' E 002°38'0 0.0
2018-Nov-10 17:51N 39°33' E 002°38'0 0.0
2018-Nov-10 17:30N 39°33' E 002°38'0 0.0
2018-Nov-10 17:00N 39°33' E 002°38'0 0.0
2018-Nov-10 16:30N 39°33' E 002°38'0 0.0
2018-Nov-10 16:00N 39°33' E 002°38'0 0.0
2018-Nov-10 15:30N 39°33' E 002°38'0 0.0
2018-Nov-10 15:01N 39°33' E 002°38'1 1.8
2018-Nov-10 14:32N 39°33' E 002°38'4 7.9
2018-Nov-10 14:02N 39°29' E 002°39'611.7
2018-Nov-10 13:32N 39°24' E 002°40'611.4
2018-Nov-10 13:02N 39°18' E 002°42'611.4
2018-Nov-10 12:32N 39°13' E 002°44'611.7
2018-Nov-10 12:02N 39°07' E 002°46'511.0
2018-Nov-10 11:32N 39°02' E 002°50'611.6
2018-Nov-10 11:01N 39°02' E 002°58'611.8
2018-Nov-10 10:32N 39°02' E 003°05'711.7
2018-Nov-10 09:55N 39°02' E 003°15'411.7
2018-Nov-10 09:32N 39°04' E 003°20'611.7
2018-Nov-10 09:02N 39°07' E 003°26'33512.1
2018-Nov-09 05:15N 41°34' E 010°01'313.3
2018-Nov-09 05:02N 41°35' E 010°05'613.1
2018-Nov-09 04:33N 41°38' E 010°13'  
2018-Nov-05 14:14N 40°20' E 013°19'4 8.8
2018-Nov-05 13:47N 40°17' E 013°23'3 8.8
2018-Nov-05 13:27N 40°15' E 013°25'17 8.8
2018-Nov-05 11:35N 40°03' E 013°39'14 8.7
2018-Nov-05 09:55N 39°52' E 013°52'3 8.4
2018-Nov-05 09:30N 39°49' E 013°55'5 8.5
2018-Nov-05 08:58N 39°46' E 013°59'67 8.6
2018-Nov-05 01:07N 38°56' E 014°56'6 8.3
2018-Nov-05 00:27N 38°51' E 015°01'3 8.1
2018-Nov-05 00:03N 38°49' E 015°04'2 8.2
2018-Nov-04 23:51N 38°48' E 015°05'3 8.8
2018-Nov-04 23:30N 38°46' E 015°08'4 8.6
2018-Nov-04 23:03N 38°43' E 015°11'1 8.3
2018-Nov-04 23:00N 38°42' E 015°12'5 8.5
2018-Nov-04 22:27N 38°40' E 015°16'3 8.4
2018-Nov-04 22:03N 38°38' E 015°20'0 8.4
2018-Nov-04 22:00N 38°37' E 015°20'4 8.6
2018-Nov-04 21:29N 38°34' E 015°24'4 8.9
2018-Nov-04 21:03N 38°32' E 015°28'1 8.9
2018-Nov-04 20:59N 38°31' E 015°28'5 8.8
2018-Nov-04 20:23N 38°27' E 015°33'3 9.8
2018-Nov-04 20:04N 38°25' E 015°35'112.7
2018-Nov-04 20:01N 38°24' E 015°36'814.2
2018-Nov-04 19:26N 38°17' E 015°42'411.6
2018-Nov-04 19:03N 38°14' E 015°38'0 9.6
2018-Nov-04 19:00N 38°14' E 015°37'4 0.1
2018-Nov-03 06:45N 38°12' E 015°33'0 0.6
2018-Nov-03 06:28N 38°12' E 015°34'2 5.2
2018-Nov-03 06:03N 38°13' E 015°35'1 9.7
2018-Nov-03 06:00N 38°14' E 015°36'611.7
2018-Nov-03 05:30N 38°19' E 015°40'510.3
2018-Nov-03 05:03N 38°21' E 015°35'110.7
2018-Nov-03 05:00N 38°21' E 015°34'510.4
2018-Nov-03 04:30N 38°21' E 015°28'510.6
2018-Nov-03 04:03N 38°21' E 015°22'111.5
2018-Nov-03 04:00N 38°21' E 015°21'611.2
2018-Nov-03 03:30N 38°20' E 015°14'511.0
2018-Nov-03 03:03N 38°19' E 015°08'111.0
2018-Nov-03 03:00N 38°19' E 015°07'611.0
2018-Nov-03 02:30N 38°19' E 014°60'511.1
2018-Nov-03 02:03N 38°18' E 014°54'111.1
2018-Nov-03 02:00N 38°18' E 014°53'611.3
2018-Nov-03 01:29N 38°17' E 014°45'511.5
2018-Nov-03 01:01N 38°17' E 014°39'012.2
2018-Nov-03 01:00N 38°17' E 014°39'1215.5
2018-Nov-03 00:13N 38°15' E 014°23'315.8
2018-Nov-03 00:03N 38°15' E 014°20'1615.7
2018-Nov-02 23:00N 38°13' E 013°59'815.3
2018-Nov-02 22:30N 38°12' E 013°49'715.5
2018-Nov-02 22:03N 38°11' E 013°41'115.5
2018-Nov-02 22:01N 38°11' E 013°40'815.4
2018-Nov-02 21:31N 38°10' E 013°30'613.7
2018-Nov-02 21:03N 38°07' E 013°23'0 7.5
2018-Nov-02 21:00N 38°07' E 013°23'1 1.7
2018-Nov-02 20:29N 38°08' E 013°22'0 0.0
2018-Nov-02 20:02N 38°08' E 013°22'0 0.0
2018-Nov-02 19:59N 38°08' E 013°22'0 0.0
2018-Nov-02 19:29N 38°08' E 013°22'0 0.0
2018-Nov-02 19:02N 38°08' E 013°22'0 0.0
2018-Nov-02 18:59N 38°08' E 013°22'0 0.0
2018-Nov-02 18:29N 38°08' E 013°22'0 0.0
2018-Nov-02 18:02N 38°08' E 013°22'0 0.0
2018-Nov-02 17:59N 38°08' E 013°22'0 0.0
2018-Nov-02 17:29N 38°08' E 013°22'0 0.0
2018-Nov-02 16:59N 38°08' E 013°22'0 0.0
2018-Nov-02 16:29N 38°08' E 013°22'0 0.0
2018-Nov-02 16:02N 38°08' E 013°22'0 0.0
2018-Nov-02 15:59N 38°08' E 013°22'0 0.0
2018-Nov-02 15:29N 38°08' E 013°22'0 0.0
2018-Nov-02 15:02N 38°08' E 013°22'0 0.0
2018-Nov-02 14:59N 38°08' E 013°22'0 0.0
2018-Nov-02 14:02N 38°08' E 013°22'0 0.0
2018-Nov-02 13:59N 38°08' E 013°22'0 0.0
2018-Nov-02 13:29N 38°08' E 013°22'0 0.0
2018-Nov-02 13:02N 38°08' E 013°22'0 0.0
2018-Nov-02 12:59N 38°08' E 013°22'0 0.0
2018-Nov-02 12:29N 38°08' E 013°22'0 0.0
2018-Nov-02 12:02N 38°08' E 013°22'0 0.0
2018-Nov-02 11:59N 38°08' E 013°22'0 0.0
2018-Nov-02 11:29N 38°08' E 013°22'0 0.0
2018-Nov-02 11:02N 38°08' E 013°22'0 0.0
2018-Nov-02 10:59N 38°08' E 013°22'0 0.0
2018-Nov-02 10:29N 38°08' E 013°22'0 0.0
2018-Nov-02 10:02N 38°08' E 013°22'0 0.0
2018-Nov-02 09:59N 38°08' E 013°22'0 0.0
2018-Nov-02 09:29N 38°08' E 013°22'0 0.0
2018-Nov-02 09:02N 38°08' E 013°22'0 0.0
2018-Nov-02 08:59N 38°08' E 013°22'0 0.0
2018-Nov-02 08:29N 38°08' E 013°22'0 0.0
2018-Nov-02 08:02N 38°08' E 013°22'0 0.0
2018-Nov-02 07:59N 38°08' E 013°22'0 0.0
2018-Nov-02 07:29N 38°08' E 013°22'0 0.0
2018-Nov-02 07:02N 38°08' E 013°22'0 0.0
2018-Nov-02 06:38N 38°08' E 013°22'0 0.0
2018-Nov-02 06:29N 38°08' E 013°22'0 0.0
2018-Nov-02 05:59N 38°08' E 013°22'0 0.0
2018-Nov-02 05:29N 38°08' E 013°22'0 0.0
2018-Nov-02 05:02N 38°08' E 013°22'0 0.0
2018-Nov-02 04:59N 38°08' E 013°22'0 0.0
2018-Nov-02 04:29N 38°08' E 013°22'0 0.0
2018-Nov-02 04:02N 38°08' E 013°22'0 0.0
2018-Nov-02 03:59N 38°08' E 013°22'0 0.0
2018-Nov-02 03:29N 38°08' E 013°22'0 0.0
2018-Nov-02 03:02N 38°08' E 013°22'0 0.0
2018-Nov-02 02:59N 38°08' E 013°22'0 0.0
2018-Nov-02 02:29N 38°08' E 013°22'0 0.0
2018-Nov-02 02:02N 38°08' E 013°22'0 0.0
2018-Nov-02 01:59N 38°08' E 013°22'0 0.0
2018-Nov-02 01:29N 38°08' E 013°22'0 0.0
2018-Nov-02 01:02N 38°08' E 013°22'0 0.0
2018-Nov-02 00:59N 38°08' E 013°22'0 0.0
2018-Nov-02 00:50N 38°08' E 013°22'0 0.0
2018-Nov-02 00:35N 38°08' E 013°22'0 0.0
2018-Nov-02 00:29N 38°08' E 013°22'0 0.0
2018-Nov-02 00:02N 38°08' E 013°22'0 0.0
2018-Nov-01 23:59N 38°08' E 013°22'0 0.0
2018-Nov-01 23:29N 38°08' E 013°22'0 0.0
2018-Nov-01 23:02N 38°08' E 013°22'0 0.0
2018-Nov-01 22:59N 38°08' E 013°22'0 0.0
2018-Nov-01 22:29N 38°08' E 013°22'0 0.0
2018-Nov-01 22:02N 38°08' E 013°22'0 0.0
2018-Nov-01 21:59N 38°08' E 013°22'0 0.0
2018-Nov-01 21:29N 38°08' E 013°22'0 0.0
2018-Nov-01 21:02N 38°08' E 013°22'0 0.0
2018-Nov-01 20:59N 38°08' E 013°22'0 0.0
2018-Nov-01 20:29N 38°08' E 013°22'0 0.0
2018-Nov-01 20:02N 38°08' E 013°22'0 0.0
2018-Nov-01 19:59N 38°08' E 013°22'0 0.0
2018-Nov-01 19:29N 38°08' E 013°22'0 0.0
2018-Nov-01 19:02N 38°08' E 013°22'0 0.0
2018-Nov-01 18:59N 38°08' E 013°22'0 0.0
2018-Nov-01 18:29N 38°08' E 013°22'0 0.0
2018-Nov-01 18:02N 38°08' E 013°22'0 0.0
2018-Nov-01 17:59N 38°08' E 013°22'0 0.0
2018-Nov-01 17:29N 38°08' E 013°22'0 0.0
2018-Nov-01 17:02N 38°08' E 013°22'0 0.0
2018-Nov-01 16:59N 38°08' E 013°22'0 0.0
2018-Nov-01 16:29N 38°08' E 013°22'0 0.0
2018-Nov-01 16:02N 38°08' E 013°22'0 0.0
2018-Nov-01 15:59N 38°08' E 013°22'0 0.0
2018-Nov-01 15:29N 38°08' E 013°22'0 0.0
2018-Nov-01 15:02N 38°08' E 013°22'0 0.0
2018-Nov-01 14:59N 38°08' E 013°22'0 0.0
2018-Nov-01 14:29N 38°08' E 013°22'0 0.0
2018-Nov-01 13:59N 38°08' E 013°22'0 0.0
2018-Nov-01 13:29N 38°08' E 013°22'0 0.0
2018-Nov-01 13:02N 38°08' E 013°22'0 0.0
2018-Nov-01 12:59N 38°08' E 013°22'0 0.0
2018-Nov-01 12:29N 38°08' E 013°22'0 0.0
2018-Nov-01 12:02N 38°08' E 013°22'0 0.0
2018-Nov-01 11:59N 38°08' E 013°22'0 0.0
2018-Nov-01 11:29N 38°08' E 013°22'0 0.0
2018-Nov-01 11:02N 38°08' E 013°22'0 0.0
2018-Nov-01 10:59N 38°08' E 013°22'0 0.0
2018-Nov-01 10:29N 38°08' E 013°22'0 0.0
2018-Nov-01 10:02N 38°08' E 013°22'0 0.0
2018-Nov-01 09:59N 38°08' E 013°22'0 0.0
2018-Nov-01 09:29N 38°08' E 013°22'0 0.0
2018-Nov-01 09:02N 38°08' E 013°22'0 0.0
2018-Nov-01 08:59N 38°08' E 013°22'0 0.0
2018-Nov-01 08:29N 38°08' E 013°22'0 0.0
2018-Nov-01 08:02N 38°08' E 013°22'0 0.0
2018-Nov-01 07:59N 38°08' E 013°22'0 0.0
2018-Nov-01 07:29N 38°08' E 013°22'0 0.0
2018-Nov-01 07:02N 38°08' E 013°22'0 0.0
2018-Nov-01 06:59N 38°08' E 013°22'0 0.0
2018-Nov-01 06:29N 38°08' E 013°22'0 0.0
2018-Nov-01 06:02N 38°08' E 013°22'0 0.0
2018-Nov-01 05:59N 38°08' E 013°22'0 0.0
2018-Nov-01 05:29N 38°08' E 013°22'0 0.0
2018-Nov-01 05:02N 38°08' E 013°22'0 0.0
2018-Nov-01 04:59N 38°08' E 013°22'0 0.0
2018-Nov-01 04:29N 38°08' E 013°22'0 0.0
2018-Nov-01 04:02N 38°08' E 013°22'0 0.0
2018-Nov-01 03:59N 38°08' E 013°22'0 0.0
2018-Nov-01 03:29N 38°08' E 013°22'0 0.0
2018-Nov-01 03:02N 38°08' E 013°22'0 0.0
2018-Nov-01 02:59N 38°08' E 013°22'  

Dump ship's entire track history